RJA261 OJAI-OERK
Flight info
| Callsign | RJA261 |
|---|---|
| Flight time | N/A |
| Altitude | 41000 |
| Route | KULDI N318 TAMRO DCT KUNEK |
| Aircraft | B788/H-SDE1E2E3FGHIJ2J3J4J5M1RWXY/LB1D1 |
Departure
| Time | 2026-05-09 15:39 |
|---|---|
| Airport | Queen Alia International Airport (OJAI) |
Arrival
| Time | N/A |
|---|---|
| Airport | King Khalid International Airport (OERK) |
| Time | Latitude | Longitude | Altitude | Speed | Heading |
|---|---|---|---|---|---|
| 2026-05-09 15:32 | 31.72471 | 35.98967 | 2424 ft | 0 kts | 170° |
| 2026-05-09 15:33 | 31.72477 | 35.98966 | 2420 ft | 2 kts | 170° |
| 2026-05-09 15:33 | 31.72495 | 35.98963 | 2419 ft | 2 kts | 170° |
| 2026-05-09 15:33 | 31.72512 | 35.98957 | 2419 ft | 3 kts | 141° |
| 2026-05-09 15:33 | 31.72524 | 35.98940 | 2421 ft | 3 kts | 105° |
| 2026-05-09 15:34 | 31.72527 | 35.98918 | 2421 ft | 2 kts | 94° |
| 2026-05-09 15:34 | 31.72528 | 35.98911 | 2421 ft | 0 kts | 94° |
| 2026-05-09 15:35 | 31.72528 | 35.98915 | 2421 ft | 3 kts | 86° |
| 2026-05-09 15:35 | 31.72528 | 35.98974 | 2419 ft | 20 kts | 95° |
| 2026-05-09 15:36 | 31.72532 | 35.99154 | 2422 ft | 26 kts | 82° |
| 2026-05-09 15:36 | 31.72562 | 35.99359 | 2423 ft | 28 kts | 80° |
| 2026-05-09 15:36 | 31.72627 | 35.99498 | 2422 ft | 17 kts | 9° |
| 2026-05-09 15:36 | 31.72766 | 35.99542 | 2422 ft | 21 kts | 64° |
| 2026-05-09 15:37 | 31.72792 | 35.99698 | 2423 ft | 19 kts | 80° |
| 2026-05-09 15:37 | 31.72830 | 35.99935 | 2422 ft | 34 kts | 78° |
| 2026-05-09 15:37 | 31.72874 | 36.00182 | 2423 ft | 30 kts | 78° |
| 2026-05-09 15:37 | 31.72904 | 36.00431 | 2423 ft | 35 kts | 87° |
| 2026-05-09 15:38 | 31.72939 | 36.00711 | 2420 ft | 31 kts | 77° |
| 2026-05-09 15:38 | 31.73045 | 36.00782 | 2422 ft | 16 kts | 355° |
| 2026-05-09 15:38 | 31.73164 | 36.00762 | 2421 ft | 21 kts | 349° |
| 2026-05-09 15:38 | 31.73228 | 36.00713 | 2420 ft | 12 kts | 288° |
| 2026-05-09 15:39 | 31.73198 | 36.00498 | 2421 ft | 64 kts | 261° |
| 2026-05-09 15:39 | 31.73077 | 35.99633 | 2423 ft | 148 kts | 260° |
| 2026-05-09 15:39 | 31.72876 | 35.98216 | 2792 ft | 193 kts | 264° |
| 2026-05-09 15:39 | 31.72701 | 35.96546 | 3557 ft | 215 kts | 269° |
| 2026-05-09 15:40 | 31.72644 | 35.94738 | 4367 ft | 231 kts | 272° |
| 2026-05-09 15:40 | 31.72773 | 35.92793 | 5195 ft | 247 kts | 277° |
| 2026-05-09 15:40 | 31.72806 | 35.90830 | 6599 ft | 203 kts | 247° |
| 2026-05-09 15:40 | 31.72245 | 35.89693 | 8730 ft | 143 kts | 222° |
| 2026-05-09 15:41 | 31.71407 | 35.88960 | 9211 ft | 168 kts | 211° |
| 2026-05-09 15:41 | 31.70360 | 35.88106 | 9556 ft | 198 kts | 204° |
| 2026-05-09 15:41 | 31.68931 | 35.87889 | 9980 ft | 223 kts | 173° |
| 2026-05-09 15:41 | 31.67454 | 35.88685 | 10415 ft | 252 kts | 143° |
| 2026-05-09 15:42 | 31.66278 | 35.90359 | 10876 ft | 281 kts | 126° |
| 2026-05-09 15:42 | 31.65186 | 35.92354 | 11298 ft | 307 kts | 126° |
| 2026-05-09 15:42 | 31.63985 | 35.94565 | 11681 ft | 333 kts | 126° |
| 2026-05-09 15:42 | 31.63716 | 35.95056 | 11762 ft | 339 kts | 126° |